Time;durP1;ratioP1;P1;durP2;ratioP2;P2;SDS_P1;SDS_P2;PMS_P1;PMS_P2;Temp;Humidity;BMP_temperature;BMP_pressure;BME280_temperature;BME280_humidity;BME280_pressure;Samples;Min_cycle;Max_cycle;Signal;HPM_P1;HPM_P2
2024/02/13 00:01:41;;;;;;;15.73;5.13;;;;;;;11.05;86.39;98663.41;5030169;28;20029;-39
2024/02/13 00:04:08;;;;;;;18.65;5.28;;;;;;;10.92;86.73;98667.91;5032683;28;20021;-37
2024/02/13 00:06:34;;;;;;;18.77;5.15;;;;;;;10.87;87.61;98670.50;5032590;28;20067;-38
2024/02/13 00:09:00;;;;;;;15.63;4.80;;;;;;;10.57;88.52;98670.56;5032493;28;20120;-39
2024/02/13 00:11:25;;;;;;;15.98;5.60;;;;;;;10.45;90.41;98675.06;5032574;28;20108;-39
2024/02/13 00:13:51;;;;;;;11.73;4.85;;;;;;;10.52;88.96;98668.59;5032427;28;20104;-39
2024/02/13 00:16:20;;;;;;;17.55;5.22;;;;;;;10.70;88.55;98670.34;5032318;28;20022;-36
2024/02/13 00:18:49;;;;;;;21.73;5.32;;;;;;;10.46;88.77;98671.38;5031932;28;20049;-37
2024/02/13 00:21:15;;;;;;;20.80;5.70;;;;;;;10.55;88.93;98665.47;5032961;28;20044;-39
2024/02/13 00:23:40;;;;;;;12.07;5.45;;;;;;;10.49;89.69;98671.72;5032998;28;20026;-36
2024/02/13 00:26:09;;;;;;;21.73;5.47;;;;;;;10.52;88.03;98663.25;5032886;28;20108;-39
2024/02/13 00:28:37;;;;;;;14.10;4.85;;;;;;;10.28;89.62;98669.53;5032782;28;20021;-39
2024/02/13 00:31:04;;;;;;;17.45;5.53;;;;;;;10.18;89.47;98665.63;5032728;28;20029;-39
2024/02/13 00:33:40;;;;;;;19.70;5.85;;;;;;;10.27;88.91;98670.59;5032408;28;20033;-39
2024/02/13 00:36:07;;;;;;;17.73;5.60;;;;;;;10.01;90.53;98674.44;5032441;28;20108;-36
2024/02/13 00:38:32;;;;;;;14.05;5.25;;;;;;;10.02;91.40;98670.75;5032539;28;20025;-38
2024/02/13 00:40:57;;;;;;;14.82;5.22;;;;;;;10.14;90.32;98664.41;5032817;28;20087;-39
2024/02/13 00:43:23;;;;;;;12.85;5.70;;;;;;;10.02;90.43;98666.25;5032244;28;20485;-36
2024/02/13 00:45:49;;;;;;;13.82;5.75;;;;;;;10.05;91.24;98665.81;5032369;28;20029;-39
2024/02/13 00:48:17;;;;;;;19.10;6.18;;;;;;;10.34;89.42;98655.41;5031176;28;20029;-40
2024/02/13 00:50:44;;;;;;;16.98;6.00;;;;;;;10.37;88.99;98660.22;5031862;28;20065;-37
2024/02/13 00:53:10;;;;;;;15.27;5.55;;;;;;;10.33;88.78;98659.06;5032598;28;20087;-37
2024/02/13 00:55:36;;;;;;;13.38;4.97;;;;;;;10.07;89.08;98662.91;5032295;28;20029;-38
2024/02/13 00:58:01;;;;;;;14.05;5.60;;;;;;;10.06;89.32;98664.75;5032024;28;20036;-38
2024/02/13 01:00:27;;;;;;;13.98;5.10;;;;;;;9.94;89.80;98663.91;5032698;28;20033;-39
2024/02/13 01:02:52;;;;;;;9.80;5.05;;;;;;;9.91;89.70;98667.81;5031951;28;20033;-37
2024/02/13 01:05:17;;;;;;;11.25;5.30;;;;;;;9.77;89.98;98666.38;5032154;28;20028;-36
2024/02/13 01:07:43;;;;;;;9.93;5.18;;;;;;;9.58;91.18;98660.28;5032185;28;20026;-37
2024/02/13 01:10:09;;;;;;;11.73;4.97;;;;;;;9.65;90.91;98660.19;5032057;28;20025;-39
2024/02/13 01:12:34;;;;;;;11.55;4.97;;;;;;;9.58;91.26;98649.66;5031816;28;20025;-36
2024/02/13 01:15:00;;;;;;;12.65;5.07;;;;;;;9.61;90.63;98646.53;5032054;28;20048;-39
2024/02/13 01:17:28;;;;;;;13.25;5.35;;;;;;;9.83;89.00;98651.38;5031477;28;20513;-39
2024/02/13 01:19:53;;;;;;;12.05;4.68;;;;;;;9.63;89.54;98644.47;5031957;28;20029;-38
2024/02/13 01:22:19;;;;;;;12.38;4.90;;;;;;;9.61;89.68;98648.41;5032028;28;20087;-39
2024/02/13 01:24:44;;;;;;;12.02;4.70;;;;;;;9.36;90.14;98633.38;5031930;28;20022;-26
2024/02/13 01:27:09;;;;;;;9.65;4.55;;;;;;;9.61;89.49;98643.88;5031795;28;20108;-26
2024/02/13 01:29:36;;;;;;;8.02;4.30;;;;;;;9.40;89.85;98642.50;5031620;28;20040;-26
2024/02/13 01:32:03;;;;;;;9.60;4.65;;;;;;;9.43;90.16;98646.59;5031371;28;20032;-26
2024/02/13 01:34:30;;;;;;;10.32;4.88;;;;;;;9.47;89.13;98623.84;5031378;28;20108;-26
2024/02/13 01:36:57;;;;;;;9.55;4.38;;;;;;;9.44;89.54;98635.72;5031353;28;20048;-27
2024/02/13 01:39:24;;;;;;;10.10;4.65;;;;;;;9.16;91.02;98639.72;5031832;28;20051;-26
2024/02/13 01:41:49;;;;;;;14.60;4.32;;;;;;;9.15;91.40;98640.75;5031850;28;20033;-26
2024/02/13 01:44:15;;;;;;;12.35;4.65;;;;;;;9.35;90.12;98645.03;5031250;28;20397;-27
2024/02/13 01:46:40;;;;;;;7.65;4.53;;;;;;;9.11;90.82;98639.56;5031235;28;20033;-26
2024/02/13 01:49:07;;;;;;;9.38;4.20;;;;;;;9.06;90.83;98642.06;5031181;28;20029;-27
2024/02/13 01:51:35;;;;;;;11.50;4.28;;;;;;;8.98;90.52;98635.19;5031235;28;20103;-26
2024/02/13 01:54:04;;;;;;;9.18;4.38;;;;;;;8.89;91.28;98641.84;5030975;28;20033;-26
2024/02/13 01:56:31;;;;;;;8.57;4.28;;;;;;;8.90;90.72;98642.66;5030983;28;20033;-26
2024/02/13 01:58:57;;;;;;;10.25;4.85;;;;;;;9.22;88.76;98635.38;5031076;28;20036;-27
2024/02/13 02:01:24;;;;;;;9.30;4.40;;;;;;;9.28;87.87;98639.78;5031025;28;20033;-26
2024/02/13 02:03:52;;;;;;;10.60;4.50;;;;;;;9.51;87.04;98638.31;5030950;28;20117;-27
2024/02/13 02:06:18;;;;;;;8.13;4.10;;;;;;;9.44;87.41;98648.19;5031267;28;20025;-27
2024/02/13 02:08:44;;;;;;;8.80;3.90;;;;;;;9.51;86.79;98638.31;5031116;28;20090;-26
2024/02/13 02:11:10;;;;;;;8.63;3.70;;;;;;;9.63;86.75;98636.50;5031280;28;20030;-27
2024/02/13 02:13:36;;;;;;;9.63;3.78;;;;;;;9.72;86.33;98651.09;5030705;28;20473;-27
2024/02/13 02:16:02;;;;;;;11.82;3.85;;;;;;;9.63;86.58;98636.50;5031206;28;20025;-26
2024/02/13 02:18:27;;;;;;;6.97;3.28;;;;;;;9.73;84.64;98643.97;5030890;28;20547;-27
2024/02/13 02:20:52;;;;;;;10.00;4.28;;;;;;;9.95;83.93;98645.06;5030441;28;20686;-26
2024/02/13 02:23:19;;;;;;;9.18;3.45;;;;;;;9.80;83.85;98647.31;5043133;28;20029;-27
2024/02/13 02:25:45;;;;;;;9.50;3.30;;;;;;;9.78;82.56;98655.50;5050809;28;20020;-27
2024/02/13 02:28:11;;;;;;;6.78;2.90;;;;;;;9.46;82.35;98630.19;5022845;28;20037;-26
2024/02/13 02:30:36;;;;;;;9.38;3.00;;;;;;;9.87;81.50;98658.69;5030564;28;20037;-26
2024/02/13 02:33:02;;;;;;;5.90;3.03;;;;;;;9.92;81.29;98658.00;5030715;28;20186;-27
2024/02/13 02:35:28;;;;;;;9.40;3.03;;;;;;;9.58;83.15;98670.91;5011960;28;20040;-26
2024/02/13 02:37:53;;;;;;;8.70;3.40;;;;;;;9.74;82.08;98664.97;5010938;28;20026;-26
2024/02/13 02:40:19;;;;;;;7.20;3.22;;;;;;;9.67;82.77;98664.25;5011283;28;20386;-26
2024/02/13 02:42:47;;;;;;;7.75;3.00;;;;;;;9.64;83.50;98677.19;5011244;28;20451;-27
2024/02/13 02:45:12;;;;;;;10.00;3.22;;;;;;;9.68;83.26;98663.22;5010967;28;20474;-26
2024/02/13 02:47:37;;;;;;;4.72;2.90;;;;;;;9.82;82.51;98665.69;5017197;28;20112;-26
2024/02/13 02:50:03;;;;;;;8.40;3.25;;;;;;;9.76;81.90;98670.06;5030579;28;20044;-27
2024/02/13 02:52:29;;;;;;;9.02;3.00;;;;;;;9.81;81.51;98675.53;5030624;28;20064;-26
2024/02/13 02:54:55;;;;;;;9.43;3.00;;;;;;;9.97;80.22;98674.88;5030542;28;20036;-26
2024/02/13 02:57:21;;;;;;;12.02;3.22;;;;;;;10.07;79.25;98685.00;5031016;28;20389;-26
2024/02/13 02:59:46;;;;;;;6.50;3.13;;;;;;;9.99;79.36;98682.63;5031146;28;20105;-26
2024/02/13 03:02:12;;;;;;;10.30;2.90;;;;;;;9.93;78.86;98686.19;5030836;28;20065;-26
2024/02/13 03:04:37;;;;;;;6.78;2.70;;;;;;;9.98;78.08;98684.50;5030278;28;20460;-26
2024/02/13 03:07:03;;;;;;;7.18;3.00;;;;;;;10.06;77.85;98683.34;5030455;28;20115;-26
2024/02/13 03:09:29;;;;;;;6.32;2.70;;;;;;;9.97;77.68;98679.41;5030312;28;20079;-26
2024/02/13 03:11:54;;;;;;;7.25;2.60;;;;;;;10.18;77.06;98684.22;5030785;28;20040;-25
2024/02/13 03:14:20;;;;;;;6.97;2.60;;;;;;;10.10;76.96;98692.50;5034180;28;20389;-26
2024/02/13 03:16:47;;;;;;;7.05;2.60;;;;;;;10.13;76.80;98691.25;5034283;28;20056;-26
2024/02/13 03:19:12;;;;;;;8.20;2.80;;;;;;;10.09;76.19;98698.88;5033954;28;20056;-26
2024/02/13 03:21:38;;;;;;;4.93;2.40;;;;;;;10.00;77.46;98696.75;5034310;28;20033;-26
2024/02/13 03:24:05;;;;;;;6.30;2.67;;;;;;;10.13;76.58;98708.00;5033805;28;20385;-27
2024/02/13 03:26:31;;;;;;;4.45;2.63;;;;;;;10.08;76.85;98707.88;5034135;28;20046;-26
2024/02/13 03:28:57;;;;;;;5.88;2.60;;;;;;;10.07;77.00;98706.25;5034044;28;20124;-38
2024/02/13 03:31:22;;;;;;;5.45;2.50;;;;;;;10.29;75.72;98706.56;5033825;28;20488;-38
2024/02/13 03:33:47;;;;;;;5.00;2.65;;;;;;;10.38;75.04;98707.09;5033915;28;20025;-37
2024/02/13 03:36:19;;;;;;;3.22;2.25;;;;;;;10.42;73.84;98694.94;5033832;28;20021;-40
2024/02/13 03:38:47;;;;;;;5.18;2.50;;;;;;;10.14;74.89;98700.84;5033668;28;20030;-38
2024/02/13 03:41:13;;;;;;;7.47;2.65;;;;;;;10.31;73.37;98706.34;5034018;28;20064;-40
2024/02/13 03:43:41;;;;;;;7.72;2.63;;;;;;;10.35;72.88;98705.66;5033400;28;20041;-36
2024/02/13 03:46:07;;;;;;;5.63;2.67;;;;;;;10.54;72.40;98697.63;5033528;28;20022;-37
2024/02/13 03:48:32;;;;;;;5.28;2.25;;;;;;;10.64;71.83;98699.72;5033698;28;20373;-38
2024/02/13 03:50:57;;;;;;;9.50;2.60;;;;;;;10.68;70.96;98704.38;5033331;28;20132;-36
2024/02/13 03:53:23;;;;;;;7.32;2.80;;;;;;;10.68;70.97;98703.53;5033537;28;20026;-40
2024/02/13 03:55:48;;;;;;;8.90;2.70;;;;;;;10.82;70.42;98702.28;5033372;28;20018;-37
2024/02/13 03:58:15;;;;;;;7.18;3.00;;;;;;;10.83;69.56;98695.13;5033532;28;20029;-38
2024/02/13 04:00:41;;;;;;;9.68;3.05;;;;;;;10.91;69.48;98695.59;5033286;28;20493;-39
2024/02/13 04:03:06;;;;;;;6.72;2.83;;;;;;;11.01;68.45;98691.56;5033150;28;20115;-37
2024/02/13 04:05:37;;;;;;;9.85;3.00;;;;;;;11.24;68.13;98696.06;5033228;28;20053;-39
2024/02/13 04:08:04;;;;;;;8.45;2.78;;;;;;;10.95;69.29;98703.94;5033512;28;20025;-39
2024/02/13 04:10:29;;;;;;;7.53;2.50;;;;;;;10.74;69.50;98706.09;5033126;28;20021;-38
2024/02/13 04:12:54;;;;;;;11.93;2.85;;;;;;;10.62;69.72;98705.25;5033309;28;20397;-36
2024/02/13 04:15:20;;;;;;;5.90;2.60;;;;;;;10.44;69.97;98708.03;5033048;28;20025;-37
2024/02/13 04:17:48;;;;;;;6.25;2.42;;;;;;;10.47;70.49;98712.88;5033035;28;20121;-40
2024/02/13 04:20:14;;;;;;;4.07;2.40;;;;;;;10.71;69.76;98714.53;5034184;28;20029;-40
2024/02/13 04:22:39;;;;;;;5.03;2.58;;;;;;;10.67;69.55;98717.91;5052452;28;20039;-39
2024/02/13 04:25:05;;;;;;;5.53;2.90;;;;;;;10.48;70.40;98720.63;5045747;28;20104;-39
2024/02/13 04:27:31;;;;;;;4.57;2.50;;;;;;;10.64;69.65;98711.19;5038216;28;20028;-35
2024/02/13 04:29:56;;;;;;;7.03;2.90;;;;;;;10.66;69.52;98729.56;5043434;28;20017;-37
2024/02/13 04:32:22;;;;;;;8.05;3.05;;;;;;;10.77;68.86;98720.78;5041094;28;20110;-42
2024/02/13 04:34:47;;;;;;;5.22;2.67;;;;;;;10.74;68.78;98715.94;5035248;28;20041;-40
2024/02/13 04:37:13;;;;;;;8.07;2.97;;;;;;;10.88;67.85;98717.34;5032981;28;20029;-36
2024/02/13 04:39:38;;;;;;;4.40;2.67;;;;;;;10.79;68.68;98716.06;5032722;28;20503;-37
2024/02/13 04:42:04;;;;;;;6.45;2.88;;;;;;;10.42;69.28;98720.75;5032472;28;20029;-40
2024/02/13 04:44:30;;;;;;;7.90;3.00;;;;;;;10.69;69.11;98721.94;5032542;28;20022;-40
2024/02/13 04:46:56;;;;;;;7.45;3.30;;;;;;;10.58;69.02;98730.72;5032353;28;20027;-39
2024/02/13 04:49:22;;;;;;;7.88;3.00;;;;;;;10.72;68.58;98720.69;5032823;28;20103;-39
2024/02/13 04:51:47;;;;;;;5.20;3.13;;;;;;;10.70;68.40;98722.75;5032424;28;20029;-39
2024/02/13 04:54:13;;;;;;;6.40;3.00;;;;;;;10.42;69.34;98731.38;5032696;28;20067;-39
2024/02/13 04:56:40;;;;;;;5.40;3.20;;;;;;;10.69;68.80;98713.16;5032525;28;20036;-41
2024/02/13 04:59:07;;;;;;;6.72;3.10;;;;;;;10.79;68.12;98726.69;5031714;28;20108;-40
2024/02/13 05:01:39;;;;;;;9.88;4.30;;;;;;;11.01;67.46;98723.50;5032693;28;20127;-42
2024/02/13 05:09:23;;;;;;;8.05;3.38;;;;;;;10.87;68.32;98734.38;5052774;28;20512;-38
2024/02/13 05:11:49;;;;;;;6.75;3.33;;;;;;;10.71;68.92;98727.03;5052509;28;20116;-39
2024/02/13 05:14:14;;;;;;;6.65;3.55;;;;;;;10.68;69.06;98740.78;5052641;28;20032;-38
2024/02/13 05:16:41;;;;;;;7.45;3.35;;;;;;;10.45;69.41;98737.06;5033561;28;20397;-41
2024/02/13 05:19:07;;;;;;;6.93;3.20;;;;;;;10.51;69.36;98744.13;5032341;28;20091;-40
2024/02/13 05:21:35;;;;;;;6.43;3.13;;;;;;;10.52;68.50;98731.63;5032428;28;20049;-37
2024/02/13 05:24:00;;;;;;;5.47;3.53;;;;;;;10.45;69.89;98747.69;5032360;28;20033;-41
2024/02/13 05:26:26;;;;;;;7.63;3.50;;;;;;;10.57;69.37;98747.72;5032706;28;20052;-39
2024/02/13 05:28:51;;;;;;;6.80;3.22;;;;;;;10.71;69.12;98758.97;5031942;28;20029;-40
2024/02/13 05:31:17;;;;;;;5.38;3.50;;;;;;;10.46;68.59;98753.81;5032100;28;20114;-39
2024/02/13 05:33:44;;;;;;;4.97;3.20;;;;;;;10.24;69.32;98766.75;5032107;28;20053;-39
2024/02/13 05:36:09;;;;;;;6.47;3.25;;;;;;;10.45;68.70;98761.00;5031446;28;20113;-41
2024/02/13 05:38:40;;;;;;;7.60;3.60;;;;;;;10.56;68.21;98775.34;5031754;28;20108;-36
2024/02/13 05:41:06;;;;;;;5.60;3.33;;;;;;;10.70;68.48;98770.63;5031722;28;20067;-40
2024/02/13 05:43:31;;;;;;;6.15;4.00;;;;;;;10.74;67.44;98769.16;5032075;28;20060;-39
2024/02/13 05:45:57;;;;;;;7.57;3.15;;;;;;;10.69;68.51;98775.16;5031741;28;20022;-38
2024/02/13 05:48:24;;;;;;;8.43;3.50;;;;;;;10.69;67.85;98777.81;5030859;28;20036;-40
2024/02/13 05:50:50;;;;;;;12.93;3.40;;;;;;;10.77;67.84;98784.66;5031566;28;20022;-36
2024/02/13 05:53:16;;;;;;;5.90;3.33;;;;;;;10.81;68.15;98785.81;5031673;28;20079;-38
2024/02/13 05:55:42;;;;;;;7.50;3.47;;;;;;;10.88;67.04;98786.53;5030425;28;20021;-37
2024/02/13 05:58:07;;;;;;;5.72;3.40;;;;;;;10.99;66.99;98786.81;5035285;28;20025;-39
2024/02/13 06:00:33;;;;;;;7.15;3.20;;;;;;;11.02;67.49;98796.97;5035740;28;20047;-42
2024/02/13 06:03:00;;;;;;;8.10;3.30;;;;;;;11.07;66.45;98800.56;5041157;28;20106;-37
2024/02/13 06:05:28;;;;;;;7.28;3.13;;;;;;;11.13;65.75;98804.19;5040699;28;20013;-39
2024/02/13 06:07:54;;;;;;;6.97;3.40;;;;;;;10.82;66.89;98806.09;5034289;28;20021;-39
2024/02/13 06:10:19;;;;;;;6.35;2.60;;;;;;;10.72;66.05;98805.84;5034762;28;20083;-37
2024/02/13 06:12:48;;;;;;;7.65;3.13;;;;;;;11.02;65.82;98808.44;5038282;28;20028;-38
2024/02/13 06:15:13;;;;;;;6.38;3.47;;;;;;;10.99;65.73;98806.25;5031403;28;20109;-40
2024/02/13 06:17:40;;;;;;;5.18;2.97;;;;;;;11.11;66.18;98807.06;5015713;28;20480;-41
2024/02/13 06:20:08;;;;;;;7.82;2.92;;;;;;;11.54;64.47;98799.81;5026295;28;20379;-38
2024/02/13 06:22:34;;;;;;;4.25;2.72;;;;;;;11.89;62.75;98798.94;5031643;28;20049;-40
2024/02/13 06:25:00;;;;;;;6.25;3.08;;;;;;;11.80;62.93;98806.47;5031864;28;20059;-40
2024/02/13 06:27:26;;;;;;;5.95;2.67;;;;;;;11.47;63.99;98815.09;5031699;28;20500;-38
2024/02/13 06:29:51;;;;;;;8.57;3.13;;;;;;;11.50;64.03;98807.44;5031734;28;20116;-39
2024/02/13 06:32:16;;;;;;;6.68;3.10;;;;;;;11.53;64.53;98808.81;5034289;28;20106;-37
2024/02/13 06:34:42;;;;;;;9.55;3.13;;;;;;;11.99;63.13;98812.50;5036636;28;20025;-39
2024/02/13 06:37:07;;;;;;;5.13;2.70;;;;;;;12.16;62.07;98820.59;5031367;28;20029;-27
2024/02/13 06:39:32;;;;;;;7.32;2.97;;;;;;;12.35;61.94;98820.41;5031711;28;20092;-27
2024/02/13 06:41:58;;;;;;;6.75;3.00;;;;;;;12.21;61.56;98826.03;5031362;28;20112;-26
2024/02/13 06:44:23;;;;;;;6.90;3.08;;;;;;;12.05;62.00;98824.91;5031068;28;20397;-27
2024/02/13 06:46:49;;;;;;;6.35;3.22;;;;;;;11.94;62.62;98817.75;5033311;28;20053;-26
2024/02/13 06:49:14;;;;;;;9.40;2.67;;;;;;;11.87;62.35;98833.81;5035448;28;20443;-27
2024/02/13 06:51:40;;;;;;;6.68;2.83;;;;;;;11.77;62.75;98824.81;5034510;28;20037;-27
2024/02/13 06:54:05;;;;;;;7.35;2.72;;;;;;;11.65;62.76;98835.47;5025009;28;20052;-39
2024/02/13 06:56:32;;;;;;;7.95;2.70;;;;;;;12.05;61.47;98842.75;5023482;28;20052;-37
2024/02/13 06:58:57;;;;;;;8.25;3.00;;;;;;;12.04;61.51;98849.94;5035326;28;20060;-38
2024/02/13 07:01:23;;;;;;;5.93;2.55;;;;;;;12.23;60.69;98847.94;5034946;28;20053;-39
2024/02/13 07:03:49;;;;;;;5.68;2.83;;;;;;;11.86;61.07;98842.88;5034980;28;20033;-39
2024/02/13 07:06:17;;;;;;;3.47;2.50;;;;;;;11.61;61.64;98848.44;5040701;28;20021;-38
2024/02/13 07:08:43;;;;;;;5.00;2.70;;;;;;;11.62;61.86;98854.59;5045817;28;20235;-38
2024/02/13 07:11:10;;;;;;;2.90;2.30;;;;;;;11.96;60.75;98849.50;5039426;28;20516;-41
2024/02/13 07:13:35;;;;;;;3.22;2.50;;;;;;;11.73;61.22;98869.78;5034311;28;20028;-39
2024/02/13 07:16:04;;;;;;;3.33;2.30;;;;;;;11.49;61.93;98876.94;5033933;28;20029;-40
2024/02/13 07:18:29;;;;;;;11.88;3.35;;;;;;;11.71;61.28;98874.53;5033584;28;20084;-40
2024/02/13 07:20:54;;;;;;;4.55;2.63;;;;;;;11.70;61.28;98875.56;5034266;28;20061;-37
2024/02/13 07:23:20;;;;;;;4.70;2.30;;;;;;;11.64;60.75;98885.28;5033624;28;20470;-41
2024/02/13 07:25:45;;;;;;;4.30;2.50;;;;;;;11.79;60.82;98879.50;5031198;28;20034;-41
2024/02/13 07:28:10;;;;;;;6.40;2.70;;;;;;;12.00;59.39;98878.13;5032311;28;20079;-39
2024/02/13 07:30:36;;;;;;;4.35;2.40;;;;;;;11.74;60.51;98874.84;5032838;28;20397;-39
2024/02/13 07:33:02;;;;;;;5.00;2.35;;;;;;;12.05;59.55;98878.25;5032622;28;20029;-40
2024/02/13 07:35:28;;;;;;;6.70;2.50;;;;;;;11.89;59.08;98881.59;5032492;28;20426;-38
2024/02/13 07:37:53;;;;;;;5.00;2.70;;;;;;;12.12;58.27;98888.78;5032986;28;20497;-43
2024/02/13 07:40:19;;;;;;;4.00;2.45;;;;;;;11.84;58.87;98892.97;5034108;28;20025;-40
2024/02/13 07:42:44;;;;;;;3.15;2.00;;;;;;;11.60;58.96;98892.13;5033904;28;20025;-40
2024/02/13 07:45:10;;;;;;;3.50;2.22;;;;;;;11.83;58.93;98886.00;5033962;28;20022;-41
2024/02/13 07:47:35;;;;;;;4.97;2.40;;;;;;;11.62;59.80;98902.56;5033620;28;20496;-40
2024/02/13 07:50:01;;;;;;;4.25;2.15;;;;;;;11.67;58.78;98892.00;5033564;28;20029;-40
2024/02/13 07:52:26;;;;;;;7.50;2.55;;;;;;;11.90;58.26;98897.38;5033949;28;20036;-37
2024/02/13 07:54:52;;;;;;;3.17;2.33;;;;;;;12.01;58.00;98900.25;5034084;28;20108;-43
2024/02/13 07:57:18;;;;;;;3.25;2.20;;;;;;;12.10;57.25;98882.88;5033496;28;20040;-40
2024/02/13 07:59:44;;;;;;;4.32;2.40;;;;;;;12.10;57.57;98899.69;5033400;28;20061;-39
2024/02/13 08:02:09;;;;;;;4.25;2.20;;;;;;;12.15;57.54;98901.66;5033623;28;20076;-41
2024/02/13 08:04:38;;;;;;;3.33;2.05;;;;;;;12.07;57.56;98894.81;5034004;28;20036;-41
2024/02/13 08:07:07;;;;;;;2.90;1.90;;;;;;;12.06;57.55;98885.19;5033626;28;20021;-41
2024/02/13 08:09:33;;;;;;;5.03;2.10;;;;;;;12.50;56.03;98898.91;5033863;28;20065;-39
2024/02/13 08:12:02;;;;;;;4.45;2.10;;;;;;;12.95;55.19;98893.88;5033379;28;20167;-42
2024/02/13 08:14:28;;;;;;;5.43;2.08;;;;;;;12.71;55.10;98888.63;5033515;28;20021;-43
2024/02/13 08:16:53;;;;;;;2.72;1.90;;;;;;;12.71;55.31;98877.94;5033010;28;20486;-41
2024/02/13 08:19:19;;;;;;;2.38;1.80;;;;;;;12.95;54.57;98877.88;5033981;28;20076;-42
2024/02/13 08:21:44;;;;;;;4.22;2.13;;;;;;;12.81;55.36;98883.50;5033722;28;20029;-40
2024/02/13 08:24:09;;;;;;;4.40;2.15;;;;;;;13.59;54.61;98878.41;5033428;28;20033;-38
2024/02/13 08:26:35;;;;;;;3.60;2.70;;;;;;;14.04;52.47;98880.13;5033321;28;20491;-42
2024/02/13 08:29:01;;;;;;;2.60;2.00;;;;;;;14.47;51.43;98875.84;5033210;28;20030;-40
2024/02/13 08:31:26;;;;;;;3.92;2.00;;;;;;;15.08;49.43;98882.13;5033380;28;20033;-41
2024/02/13 08:33:52;;;;;;;3.92;1.90;;;;;;;14.36;49.73;98881.34;5033256;28;20028;-40
2024/02/13 08:36:18;;;;;;;2.13;1.70;;;;;;;14.10;49.66;98883.66;5033281;28;20116;-43
2024/02/13 08:38:44;;;;;;;2.78;1.67;;;;;;;14.21;50.09;98876.59;5033297;28;20021;-40
2024/02/13 08:41:13;;;;;;;2.70;1.60;;;;;;;14.15;50.34;98881.06;5033059;28;20029;-41
2024/02/13 08:43:39;;;;;;;2.97;1.98;;;;;;;14.43;49.67;98871.22;5032998;28;20057;-41
2024/02/13 08:46:04;;;;;;;2.15;1.65;;;;;;;14.54;49.45;98872.97;5032959;28;20099;-39
2024/02/13 08:48:30;;;;;;;2.38;2.00;;;;;;;15.01;48.08;98879.66;5033026;28;20099;-40
2024/02/13 08:50:56;;;;;;;2.78;1.80;;;;;;;15.01;47.70;98883.13;5032590;28;20029;-41
2024/02/13 08:53:23;;;;;;;2.42;1.60;;;;;;;14.52;49.10;98880.44;5032727;28;20043;-42
2024/02/13 08:55:49;;;;;;;2.30;1.60;;;;;;;14.72;48.61;98882.59;5032816;28;20112;-41
2024/02/13 08:58:15;;;;;;;2.67;1.70;;;;;;;14.88;47.96;98896.94;5032835;28;20026;-41
2024/02/13 09:00:40;;;;;;;1.92;1.70;;;;;;;14.70;47.75;98889.22;5032794;28;20021;-43
2024/02/13 09:03:06;;;;;;;1.98;1.58;;;;;;;14.74;47.69;98893.06;5032664;28;20417;-41
2024/02/13 09:05:31;;;;;;;2.63;1.77;;;;;;;14.90;47.64;98883.28;5032650;28;20053;-42
2024/02/13 09:07:56;;;;;;;2.72;1.50;;;;;;;15.03;47.70;98882.88;5032462;28;20470;-40
2024/02/13 09:10:22;;;;;;;2.10;1.90;;;;;;;15.16;47.16;98887.03;5031528;28;20035;-40
2024/02/13 09:12:47;;;;;;;4.28;2.47;;;;;;;15.47;46.20;98898.81;5032374;28;20030;-40
2024/02/13 09:15:12;;;;;;;2.28;2.00;;;;;;;16.00;45.51;98891.69;5032145;28;20555;-45
2024/02/13 09:17:45;;;;;;;1.98;1.77;;;;;;;15.62;45.23;98904.28;5031834;28;20053;-40
2024/02/13 09:20:14;;;;;;;5.05;1.90;;;;;;;15.53;46.22;98907.72;5024963;28;20041;-39
2024/02/13 09:22:46;;;;;;;;;;;;;;;15.37;45.86;98896.88;5025674;28;20108;-40
2024/02/13 09:25:16;;;;;;;3.45;1.80;;;;;;;15.55;45.08;98897.53;5031792;28;19913;-41
2024/02/13 09:27:43;;;;;;;3.90;2.10;;;;;;;15.37;45.74;98885.34;5031793;28;20036;-41
2024/02/13 09:30:10;;;;;;;2.15;1.77;;;;;;;15.71;45.47;98887.75;5031399;28;20505;-44
2024/02/13 09:32:37;;;;;;;3.67;1.80;;;;;;;15.75;44.89;98894.25;5031889;28;21338;-43
2024/02/13 09:35:07;;;;;;;2.90;1.98;;;;;;;15.88;44.41;98896.47;5019438;28;20022;-42
2024/02/13 09:37:39;;;;;;;3.40;1.70;;;;;;;15.87;43.90;98889.47;5030374;28;20025;-41
2024/02/13 09:40:15;;;;;;;3.42;1.95;;;;;;;16.11;43.81;98875.69;5031692;28;20026;-43
2024/02/13 09:42:41;;;;;;;4.95;1.65;;;;;;;15.63;44.35;98889.00;5031158;28;20021;-41
2024/02/13 09:45:09;;;;;;;2.50;1.70;;;;;;;15.51;45.18;98907.97;5031448;28;20111;-38
2024/02/13 09:47:36;;;;;;;1.70;1.60;;;;;;;15.31;45.38;98897.09;5031250;28;20025;-40
2024/02/13 09:50:05;;;;;;;2.22;1.33;;;;;;;15.19;45.18;98890.03;5035331;28;20029;-43
2024/02/13 09:52:33;;;;;;;1.75;1.45;;;;;;;15.17;45.08;98897.50;5032028;28;20041;-43
2024/02/13 09:55:00;;;;;;;1.60;1.50;;;;;;;15.27;44.98;98896.78;5032141;28;20025;-39
2024/02/13 09:57:26;;;;;;;2.83;1.40;;;;;;;15.48;44.79;98894.25;5032106;28;20029;-45
2024/02/13 09:59:56;;;;;;;2.65;1.60;;;;;;;15.34;45.32;98875.91;5032389;28;20027;-39
2024/02/13 10:02:27;;;;;;;1.67;1.58;;;;;;;15.67;45.00;98875.91;5031822;28;20420;-38
2024/02/13 10:04:53;;;;;;;1.90;1.50;;;;;;;15.80;44.86;98870.94;5031230;28;20029;-40
2024/02/13 10:07:18;;;;;;;2.10;1.80;;;;;;;15.51;45.71;98881.16;5031341;28;20060;-43
2024/02/13 10:09:44;;;;;;;1.90;1.55;;;;;;;15.63;44.85;98872.91;5031589;28;20018;-37
2024/02/13 10:12:12;;;;;;;1.58;1.48;;;;;;;15.70;44.36;98878.06;5031515;28;20493;-43
2024/02/13 10:14:38;;;;;;;2.00;1.60;;;;;;;15.80;43.92;98873.63;5031177;28;20426;-43
2024/02/13 10:17:10;;;;;;;3.08;1.90;;;;;;;15.48;43.45;98870.97;5030121;28;20025;-41
2024/02/13 10:19:37;;;;;;;6.63;1.60;;;;;;;15.67;43.73;98879.41;5031334;28;20032;-41
2024/02/13 10:22:06;;;;;;;4.38;2.70;;;;;;;15.60;43.98;98878.81;5030990;28;20116;-40
2024/02/13 10:24:31;;;;;;;2.38;1.70;;;;;;;15.61;43.94;98872.38;5031140;28;20559;-42
2024/02/13 10:26:59;;;;;;;4.85;1.70;;;;;;;15.73;42.94;98873.03;5031962;28;20124;-40
2024/02/13 10:29:24;;;;;;;2.85;1.92;;;;;;;15.32;43.25;98869.22;5031178;28;20026;-41
2024/02/13 10:31:50;;;;;;;1.73;1.50;;;;;;;14.88;45.19;98867.47;5031684;28;20029;-42
2024/02/13 10:34:15;;;;;;;1.75;1.60;;;;;;;14.96;45.42;98868.88;5031340;28;20144;-41
2024/02/13 10:36:44;;;;;;;2.72;1.83;;;;;;;15.07;44.03;98867.91;5031314;28;20026;-44
2024/02/13 10:39:12;;;;;;;2.67;1.60;;;;;;;14.98;44.95;98864.09;5031503;28;20096;-40
2024/02/13 10:41:40;;;;;;;2.88;1.50;;;;;;;14.86;44.56;98866.91;5031386;28;20508;-43
2024/02/13 10:44:09;;;;;;;1.83;1.65;;;;;;;14.89;44.25;98866.44;5031451;28;20080;-39
2024/02/13 10:46:39;;;;;;;2.10;1.60;;;;;;;15.13;43.30;98850.03;5031531;28;20405;-42
2024/02/13 10:49:37;;;;;;;2.50;1.90;;;;;;;15.53;42.82;98862.94;5031068;28;20072;-43
2024/02/13 10:52:05;;;;;;;1.73;1.60;;;;;;;15.59;43.35;98864.59;5031292;28;20087;-41
2024/02/13 10:54:31;;;;;;;2.28;1.48;;;;;;;15.64;43.51;98869.19;5031260;28;20132;-40
2024/02/13 10:57:00;;;;;;;2.92;1.58;;;;;;;15.30;43.16;98856.06;5031209;28;20025;-40
2024/02/13 10:59:28;;;;;;;4.43;1.80;;;;;;;15.61;42.63;98865.16;5031421;28;20505;-43
2024/02/13 11:01:58;;;;;;;2.33;2.00;;;;;;;15.61;42.47;98865.16;5030840;28;20104;-42
2024/02/13 11:04:26;;;;;;;3.70;1.45;;;;;;;15.32;42.67;98853.13;5031285;28;20032;-42
2024/02/13 11:06:51;;;;;;;2.10;1.90;;;;;;;15.59;42.35;98856.56;5030968;28;20448;-40
2024/02/13 11:09:18;;;;;;;1.98;1.77;;;;;;;15.57;42.63;98839.09;5031782;28;20032;-40
2024/02/13 11:11:44;;;;;;;3.67;2.10;;;;;;;15.56;42.03;98859.75;5031105;28;20030;-39
2024/02/13 11:14:23;;;;;;;1.92;1.70;;;;;;;15.70;42.05;98851.25;5030869;28;20029;-43
2024/02/13 11:16:56;;;;;;;2.28;1.90;;;;;;;15.71;42.67;98851.00;5030807;28;20033;-41
2024/02/13 11:19:22;;;;;;;2.72;1.90;;;;;;;15.75;42.35;98854.00;5030861;28;20050;-42
2024/02/13 11:21:51;;;;;;;2.50;2.00;;;;;;;15.83;41.51;98848.94;5031193;28;20021;-44
2024/02/13 11:24:23;;;;;;;3.03;2.63;;;;;;;15.83;42.22;98856.19;5031015;28;20030;-43
2024/02/13 11:26:49;;;;;;;4.57;2.13;;;;;;;15.91;41.30;98836.91;5030969;28;20033;-42
2024/02/13 11:29:20;;;;;;;2.75;1.80;;;;;;;15.59;41.35;98850.38;5030563;28;20163;-44
2024/02/13 11:31:58;;;;;;;2.15;1.85;;;;;;;15.20;41.83;98839.91;5030794;28;20341;-42
2024/02/13 11:34:40;;;;;;;2.13;1.92;;;;;;;14.96;42.89;98837.53;5033353;28;20018;-42
2024/02/13 11:37:34;;;;;;;3.08;2.10;;;;;;;15.61;42.30;98830.28;5034097;28;20034;-40